sensor_id;sensor_type;location;lat;lon;timestamp;temperature;humidity
17146;DHT22;8688;54.444;18.444;2023-02-15T00:02:04;3.30;1.00
17146;DHT22;8688;54.444;18.444;2023-02-15T00:04:31;3.30;1.00
17146;DHT22;8688;54.444;18.444;2023-02-15T00:07:14;3.30;1.00
17146;DHT22;8688;54.444;18.444;2023-02-15T00:09:42;3.30;1.00
17146;DHT22;8688;54.444;18.444;2023-02-15T00:12:10;3.30;1.00
17146;DHT22;8688;54.444;18.444;2023-02-15T00:14:37;3.30;1.00
17146;DHT22;8688;54.444;18.444;2023-02-15T00:17:06;3.30;1.00
17146;DHT22;8688;54.444;18.444;2023-02-15T00:19:34;3.30;1.00
17146;DHT22;8688;54.444;18.444;2023-02-15T00:22:01;3.30;1.00
17146;DHT22;8688;54.444;18.444;2023-02-15T00:24:28;3.30;1.00
17146;DHT22;8688;54.444;18.444;2023-02-15T00:26:56;3.30;1.00
17146;DHT22;8688;54.444;18.444;2023-02-15T00:29:24;3.20;1.00
17146;DHT22;8688;54.444;18.444;2023-02-15T00:31:52;3.20;1.00
17146;DHT22;8688;54.444;18.444;2023-02-15T00:34:22;3.20;1.00
17146;DHT22;8688;54.444;18.444;2023-02-15T00:36:50;3.20;1.00
17146;DHT22;8688;54.444;18.444;2023-02-15T00:39:18;3.20;1.00
17146;DHT22;8688;54.444;18.444;2023-02-15T00:41:46;3.20;1.00
17146;DHT22;8688;54.444;18.444;2023-02-15T00:44:14;3.20;1.00
17146;DHT22;8688;54.444;18.444;2023-02-15T00:46:42;3.20;1.00
17146;DHT22;8688;54.444;18.444;2023-02-15T00:49:10;3.20;1.00
17146;DHT22;8688;54.444;18.444;2023-02-15T00:51:39;3.20;1.00
17146;DHT22;8688;54.444;18.444;2023-02-15T00:54:07;3.20;1.00
17146;DHT22;8688;54.444;18.444;2023-02-15T00:56:34;3.20;1.00
17146;DHT22;8688;54.444;18.444;2023-02-15T00:59:02;3.20;1.00
17146;DHT22;8688;54.444;18.444;2023-02-15T01:01:30;3.20;1.00
17146;DHT22;8688;54.444;18.444;2023-02-15T01:06:27;3.20;1.00
17146;DHT22;8688;54.444;18.444;2023-02-15T01:08:56;3.20;1.00
17146;DHT22;8688;54.444;18.444;2023-02-15T01:11:24;3.20;1.00
17146;DHT22;8688;54.444;18.444;2023-02-15T01:13:53;3.20;1.00
17146;DHT22;8688;54.444;18.444;2023-02-15T01:16:25;3.20;1.00
17146;DHT22;8688;54.444;18.444;2023-02-15T01:18:53;3.20;1.00
17146;DHT22;8688;54.444;18.444;2023-02-15T01:26:33;3.20;1.00
17146;DHT22;8688;54.444;18.444;2023-02-15T01:29:01;3.20;1.00
17146;DHT22;8688;54.444;18.444;2023-02-15T01:31:28;3.20;1.00
17146;DHT22;8688;54.444;18.444;2023-02-15T01:33:56;3.20;1.00
17146;DHT22;8688;54.444;18.444;2023-02-15T01:36:23;3.20;1.00
17146;DHT22;8688;54.444;18.444;2023-02-15T01:38:51;3.20;1.00
17146;DHT22;8688;54.444;18.444;2023-02-15T01:41:18;3.20;1.00
17146;DHT22;8688;54.444;18.444;2023-02-15T01:43:55;3.20;1.00
17146;DHT22;8688;54.444;18.444;2023-02-15T01:46:27;3.20;1.00
17146;DHT22;8688;54.444;18.444;2023-02-15T01:49:00;3.20;1.00
17146;DHT22;8688;54.444;18.444;2023-02-15T01:51:31;3.30;1.00
17146;DHT22;8688;54.444;18.444;2023-02-15T01:54:05;3.30;1.00
17146;DHT22;8688;54.444;18.444;2023-02-15T01:56:35;3.20;1.00
17146;DHT22;8688;54.444;18.444;2023-02-15T01:59:07;3.20;1.00
17146;DHT22;8688;54.444;18.444;2023-02-15T02:01:36;3.20;1.00
17146;DHT22;8688;54.444;18.444;2023-02-15T02:06:44;3.30;1.00
17146;DHT22;8688;54.444;18.444;2023-02-15T02:09:13;3.20;1.00
17146;DHT22;8688;54.444;18.444;2023-02-15T02:11:41;3.20;1.00
17146;DHT22;8688;54.444;18.444;2023-02-15T02:14:13;3.20;1.00
17146;DHT22;8688;54.444;18.444;2023-02-15T02:16:47;3.20;1.00
17146;DHT22;8688;54.444;18.444;2023-02-15T02:19:45;3.20;1.00
17146;DHT22;8688;54.444;18.444;2023-02-15T02:25:38;3.20;1.00
17146;DHT22;8688;54.444;18.444;2023-02-15T02:28:26;3.20;1.00
17146;DHT22;8688;54.444;18.444;2023-02-15T02:34:01;3.20;1.00
17146;DHT22;8688;54.444;18.444;2023-02-15T02:36:39;3.20;1.00
17146;DHT22;8688;54.444;18.444;2023-02-15T02:39:16;3.20;1.00
17146;DHT22;8688;54.444;18.444;2023-02-15T02:41:51;3.20;1.00
17146;DHT22;8688;54.444;18.444;2023-02-15T02:44:24;3.20;1.00
17146;DHT22;8688;54.444;18.444;2023-02-15T02:46:58;3.20;1.00
17146;DHT22;8688;54.444;18.444;2023-02-15T02:49:33;3.20;1.00
17146;DHT22;8688;54.444;18.444;2023-02-15T02:52:03;3.20;1.00
17146;DHT22;8688;54.444;18.444;2023-02-15T02:54:32;3.20;1.00
17146;DHT22;8688;54.444;18.444;2023-02-15T02:57:04;3.20;1.00
17146;DHT22;8688;54.444;18.444;2023-02-15T02:59:36;3.20;1.00
17146;DHT22;8688;54.444;18.444;2023-02-15T03:02:08;3.20;1.00
17146;DHT22;8688;54.444;18.444;2023-02-15T03:04:42;3.20;1.00
17146;DHT22;8688;54.444;18.444;2023-02-15T03:07:15;3.20;1.00
17146;DHT22;8688;54.444;18.444;2023-02-15T03:09:50;3.20;1.00
17146;DHT22;8688;54.444;18.444;2023-02-15T03:12:21;3.10;1.00
17146;DHT22;8688;54.444;18.444;2023-02-15T03:14:51;3.20;1.00
17146;DHT22;8688;54.444;18.444;2023-02-15T03:17:21;3.10;1.00
17146;DHT22;8688;54.444;18.444;2023-02-15T03:19:55;3.10;1.00
17146;DHT22;8688;54.444;18.444;2023-02-15T03:22:26;3.10;1.00
17146;DHT22;8688;54.444;18.444;2023-02-15T03:24:58;3.10;1.00
17146;DHT22;8688;54.444;18.444;2023-02-15T03:27:32;3.10;1.00
17146;DHT22;8688;54.444;18.444;2023-02-15T03:30:03;3.10;1.00
17146;DHT22;8688;54.444;18.444;2023-02-15T03:32:33;3.10;1.00
17146;DHT22;8688;54.444;18.444;2023-02-15T03:35:03;3.10;1.00
17146;DHT22;8688;54.444;18.444;2023-02-15T03:37:35;3.10;1.00
17146;DHT22;8688;54.444;18.444;2023-02-15T03:40:08;3.20;1.00
17146;DHT22;8688;54.444;18.444;2023-02-15T03:42:56;3.20;1.00
17146;DHT22;8688;54.444;18.444;2023-02-15T03:45:30;3.20;1.00
17146;DHT22;8688;54.444;18.444;2023-02-15T03:48:00;3.10;1.00
17146;DHT22;8688;54.444;18.444;2023-02-15T03:50:31;3.10;1.00
17146;DHT22;8688;54.444;18.444;2023-02-15T03:53:19;3.10;1.00
17146;DHT22;8688;54.444;18.444;2023-02-15T03:55:48;3.10;1.00
17146;DHT22;8688;54.444;18.444;2023-02-15T03:58:16;3.10;1.00
17146;DHT22;8688;54.444;18.444;2023-02-15T04:01:09;3.10;1.00
17146;DHT22;8688;54.444;18.444;2023-02-15T04:03:59;3.10;1.00
17146;DHT22;8688;54.444;18.444;2023-02-15T04:06:29;3.10;1.00
17146;DHT22;8688;54.444;18.444;2023-02-15T04:08:57;3.10;1.00
17146;DHT22;8688;54.444;18.444;2023-02-15T04:11:53;3.10;1.00
17146;DHT22;8688;54.444;18.444;2023-02-15T04:14:20;3.10;1.00
17146;DHT22;8688;54.444;18.444;2023-02-15T04:17:02;3.10;1.00
17146;DHT22;8688;54.444;18.444;2023-02-15T04:19:32;3.10;1.00
17146;DHT22;8688;54.444;18.444;2023-02-15T04:22:18;3.10;1.00
17146;DHT22;8688;54.444;18.444;2023-02-15T04:25:03;3.00;1.00
17146;DHT22;8688;54.444;18.444;2023-02-15T04:27:36;3.00;1.00
17146;DHT22;8688;54.444;18.444;2023-02-15T04:30:05;3.00;1.00
17146;DHT22;8688;54.444;18.444;2023-02-15T04:32:33;3.00;1.00
17146;DHT22;8688;54.444;18.444;2023-02-15T04:35:01;3.00;1.00
17146;DHT22;8688;54.444;18.444;2023-02-15T04:37:30;3.00;1.00
17146;DHT22;8688;54.444;18.444;2023-02-15T04:39:57;3.00;1.00
17146;DHT22;8688;54.444;18.444;2023-02-15T04:42:25;3.00;1.00
17146;DHT22;8688;54.444;18.444;2023-02-15T04:44:53;3.00;1.00
17146;DHT22;8688;54.444;18.444;2023-02-15T04:47:20;3.00;1.00
17146;DHT22;8688;54.444;18.444;2023-02-15T04:49:48;3.00;1.00
17146;DHT22;8688;54.444;18.444;2023-02-15T04:52:15;3.00;1.00
17146;DHT22;8688;54.444;18.444;2023-02-15T04:54:45;3.00;1.00
17146;DHT22;8688;54.444;18.444;2023-02-15T04:57:13;3.00;1.00
17146;DHT22;8688;54.444;18.444;2023-02-15T04:59:40;3.00;1.00
17146;DHT22;8688;54.444;18.444;2023-02-15T05:02:08;3.00;1.00
17146;DHT22;8688;54.444;18.444;2023-02-15T05:04:35;3.00;1.00
17146;DHT22;8688;54.444;18.444;2023-02-15T05:07:03;3.00;1.00
17146;DHT22;8688;54.444;18.444;2023-02-15T05:09:30;3.00;1.00
17146;DHT22;8688;54.444;18.444;2023-02-15T05:11:59;3.00;1.00
17146;DHT22;8688;54.444;18.444;2023-02-15T05:14:26;3.00;1.00
17146;DHT22;8688;54.444;18.444;2023-02-15T05:16:54;3.00;1.00
17146;DHT22;8688;54.444;18.444;2023-02-15T05:19:21;3.00;1.00
17146;DHT22;8688;54.444;18.444;2023-02-15T05:21:51;3.00;1.00
17146;DHT22;8688;54.444;18.444;2023-02-15T05:24:18;3.10;1.00
17146;DHT22;8688;54.444;18.444;2023-02-15T05:27:04;3.10;1.00
17146;DHT22;8688;54.444;18.444;2023-02-15T05:29:49;3.00;1.00
17146;DHT22;8688;54.444;18.444;2023-02-15T05:32:17;3.10;1.00
17146;DHT22;8688;54.444;18.444;2023-02-15T05:34:44;3.10;1.00
17146;DHT22;8688;54.444;18.444;2023-02-15T05:37:12;3.10;1.00
17146;DHT22;8688;54.444;18.444;2023-02-15T05:39:39;3.10;1.00
17146;DHT22;8688;54.444;18.444;2023-02-15T05:42:08;3.10;1.00
17146;DHT22;8688;54.444;18.444;2023-02-15T05:44:36;3.10;1.00
17146;DHT22;8688;54.444;18.444;2023-02-15T05:47:03;3.10;1.00
17146;DHT22;8688;54.444;18.444;2023-02-15T05:49:33;3.10;1.00
17146;DHT22;8688;54.444;18.444;2023-02-15T05:52:00;3.10;1.00
17146;DHT22;8688;54.444;18.444;2023-02-15T05:54:28;3.10;1.00
17146;DHT22;8688;54.444;18.444;2023-02-15T05:56:56;3.10;1.00
17146;DHT22;8688;54.444;18.444;2023-02-15T05:59:25;3.20;1.00
17146;DHT22;8688;54.444;18.444;2023-02-15T06:01:52;3.20;1.00
17146;DHT22;8688;54.444;18.444;2023-02-15T06:04:19;3.20;1.00
17146;DHT22;8688;54.444;18.444;2023-02-15T06:06:47;3.20;1.00
17146;DHT22;8688;54.444;18.444;2023-02-15T06:09:14;3.20;1.00
17146;DHT22;8688;54.444;18.444;2023-02-15T06:11:44;3.20;1.00
17146;DHT22;8688;54.444;18.444;2023-02-15T06:14:11;3.20;1.00
17146;DHT22;8688;54.444;18.444;2023-02-15T06:16:40;3.20;1.00
17146;DHT22;8688;54.444;18.444;2023-02-15T06:19:08;3.20;1.00
17146;DHT22;8688;54.444;18.444;2023-02-15T06:21:35;3.20;1.00
17146;DHT22;8688;54.444;18.444;2023-02-15T06:24:03;3.20;1.00
17146;DHT22;8688;54.444;18.444;2023-02-15T06:26:30;3.20;1.00
17146;DHT22;8688;54.444;18.444;2023-02-15T06:28:58;3.20;1.00
17146;DHT22;8688;54.444;18.444;2023-02-15T06:31:26;3.20;1.00
17146;DHT22;8688;54.444;18.444;2023-02-15T06:33:55;3.20;1.00
17146;DHT22;8688;54.444;18.444;2023-02-15T06:36:26;3.20;1.00
17146;DHT22;8688;54.444;18.444;2023-02-15T06:38:54;3.20;1.00
17146;DHT22;8688;54.444;18.444;2023-02-15T06:41:22;3.20;1.00
17146;DHT22;8688;54.444;18.444;2023-02-15T06:43:50;3.20;1.00
17146;DHT22;8688;54.444;18.444;2023-02-15T06:46:17;3.30;1.00
17146;DHT22;8688;54.444;18.444;2023-02-15T06:48:45;3.30;1.00
17146;DHT22;8688;54.444;18.444;2023-02-15T06:51:14;3.30;1.00
17146;DHT22;8688;54.444;18.444;2023-02-15T06:53:41;3.30;1.00
17146;DHT22;8688;54.444;18.444;2023-02-15T06:56:09;3.30;1.00
17146;DHT22;8688;54.444;18.444;2023-02-15T06:58:37;3.30;1.00
17146;DHT22;8688;54.444;18.444;2023-02-15T07:01:05;3.30;1.00
17146;DHT22;8688;54.444;18.444;2023-02-15T07:03:33;3.30;1.00
17146;DHT22;8688;54.444;18.444;2023-02-15T07:06:02;3.30;1.00
17146;DHT22;8688;54.444;18.444;2023-02-15T07:08:35;3.30;1.00
17146;DHT22;8688;54.444;18.444;2023-02-15T07:11:03;3.30;1.00
17146;DHT22;8688;54.444;18.444;2023-02-15T07:13:45;3.30;1.00
17146;DHT22;8688;54.444;18.444;2023-02-15T07:16:12;3.30;1.00
17146;DHT22;8688;54.444;18.444;2023-02-15T07:18:40;3.30;1.00
17146;DHT22;8688;54.444;18.444;2023-02-15T07:21:07;3.30;1.00
17146;DHT22;8688;54.444;18.444;2023-02-15T07:23:37;3.40;1.00
17146;DHT22;8688;54.444;18.444;2023-02-15T07:26:06;3.40;1.00
17146;DHT22;8688;54.444;18.444;2023-02-15T07:28:34;3.40;1.00
17146;DHT22;8688;54.444;18.444;2023-02-15T07:31:02;3.40;1.00
17146;DHT22;8688;54.444;18.444;2023-02-15T07:33:30;3.50;1.00
17146;DHT22;8688;54.444;18.444;2023-02-15T07:35:59;3.40;1.00
17146;DHT22;8688;54.444;18.444;2023-02-15T07:38:29;3.50;1.00
17146;DHT22;8688;54.444;18.444;2023-02-15T07:40:59;3.50;1.00
17146;DHT22;8688;54.444;18.444;2023-02-15T07:43:27;3.50;1.00
17146;DHT22;8688;54.444;18.444;2023-02-15T07:45:58;3.50;1.00
17146;DHT22;8688;54.444;18.444;2023-02-15T07:48:26;3.50;1.00
17146;DHT22;8688;54.444;18.444;2023-02-15T07:50:53;3.50;1.00
17146;DHT22;8688;54.444;18.444;2023-02-15T07:53:21;3.50;1.00
17146;DHT22;8688;54.444;18.444;2023-02-15T07:55:48;3.50;1.00
17146;DHT22;8688;54.444;18.444;2023-02-15T07:58:17;3.50;1.00
17146;DHT22;8688;54.444;18.444;2023-02-15T08:00:44;3.60;1.00
17146;DHT22;8688;54.444;18.444;2023-02-15T08:03:25;3.60;1.00
17146;DHT22;8688;54.444;18.444;2023-02-15T08:05:57;3.60;1.00
17146;DHT22;8688;54.444;18.444;2023-02-15T08:08:25;3.60;1.00
17146;DHT22;8688;54.444;18.444;2023-02-15T08:11:00;3.60;1.00
17146;DHT22;8688;54.444;18.444;2023-02-15T08:13:48;3.70;1.00
17146;DHT22;8688;54.444;18.444;2023-02-15T08:16:24;3.70;1.00
17146;DHT22;8688;54.444;18.444;2023-02-15T08:18:52;3.70;1.00
17146;DHT22;8688;54.444;18.444;2023-02-15T08:21:20;3.80;1.00
17146;DHT22;8688;54.444;18.444;2023-02-15T08:23:47;3.80;1.00
17146;DHT22;8688;54.444;18.444;2023-02-15T08:26:15;3.80;1.00
17146;DHT22;8688;54.444;18.444;2023-02-15T08:28:43;3.80;1.00
17146;DHT22;8688;54.444;18.444;2023-02-15T08:31:13;3.80;1.00
17146;DHT22;8688;54.444;18.444;2023-02-15T08:33:42;3.80;1.00
17146;DHT22;8688;54.444;18.444;2023-02-15T08:36:11;3.80;1.00
17146;DHT22;8688;54.444;18.444;2023-02-15T08:38:39;3.80;1.00
17146;DHT22;8688;54.444;18.444;2023-02-15T08:41:11;3.70;1.00
17146;DHT22;8688;54.444;18.444;2023-02-15T08:43:39;3.70;1.00
17146;DHT22;8688;54.444;18.444;2023-02-15T08:46:07;3.70;1.00
17146;DHT22;8688;54.444;18.444;2023-02-15T08:48:36;3.70;1.00
17146;DHT22;8688;54.444;18.444;2023-02-15T08:51:06;3.70;1.00
17146;DHT22;8688;54.444;18.444;2023-02-15T08:53:33;3.70;1.00
17146;DHT22;8688;54.444;18.444;2023-02-15T08:56:01;3.70;1.00
17146;DHT22;8688;54.444;18.444;2023-02-15T08:58:29;3.70;1.00
17146;DHT22;8688;54.444;18.444;2023-02-15T09:00:57;3.70;99.90
17146;DHT22;8688;54.444;18.444;2023-02-15T09:03:25;3.70;99.90
17146;DHT22;8688;54.444;18.444;2023-02-15T09:05:58;3.70;99.90
17146;DHT22;8688;54.444;18.444;2023-02-15T09:08:27;3.60;1.00
17146;DHT22;8688;54.444;18.444;2023-02-15T09:11:04;3.60;1.00
17146;DHT22;8688;54.444;18.444;2023-02-15T09:13:32;3.60;99.90
17146;DHT22;8688;54.444;18.444;2023-02-15T09:16:01;3.60;99.90
17146;DHT22;8688;54.444;18.444;2023-02-15T09:18:30;3.60;1.00
17146;DHT22;8688;54.444;18.444;2023-02-15T09:21:04;3.60;1.00
17146;DHT22;8688;54.444;18.444;2023-02-15T09:23:31;3.60;1.00
17146;DHT22;8688;54.444;18.444;2023-02-15T09:26:03;3.60;1.00
17146;DHT22;8688;54.444;18.444;2023-02-15T09:28:30;3.70;1.00
17146;DHT22;8688;54.444;18.444;2023-02-15T09:31:06;3.80;99.90
17146;DHT22;8688;54.444;18.444;2023-02-15T09:33:34;3.80;99.90
17146;DHT22;8688;54.444;18.444;2023-02-15T09:36:04;3.80;99.90
17146;DHT22;8688;54.444;18.444;2023-02-15T09:38:32;3.80;99.90
17146;DHT22;8688;54.444;18.444;2023-02-15T09:41:20;3.80;99.90
17146;DHT22;8688;54.444;18.444;2023-02-15T09:43:57;3.80;99.90
17146;DHT22;8688;54.444;18.444;2023-02-15T09:46:42;3.80;99.90
17146;DHT22;8688;54.444;18.444;2023-02-15T09:49:18;3.80;99.90
17146;DHT22;8688;54.444;18.444;2023-02-15T09:52:14;3.90;99.90
17146;DHT22;8688;54.444;18.444;2023-02-15T09:54:55;3.90;99.90
17146;DHT22;8688;54.444;18.444;2023-02-15T09:57:30;3.90;99.90
17146;DHT22;8688;54.444;18.444;2023-02-15T10:00:04;3.80;99.90
17146;DHT22;8688;54.444;18.444;2023-02-15T10:02:46;3.80;99.90
17146;DHT22;8688;54.444;18.444;2023-02-15T10:05:25;3.80;99.90
17146;DHT22;8688;54.444;18.444;2023-02-15T10:08:21;3.90;99.90
17146;DHT22;8688;54.444;18.444;2023-02-15T10:10:57;3.80;99.90
17146;DHT22;8688;54.444;18.444;2023-02-15T10:13:54;3.80;99.90
17146;DHT22;8688;54.444;18.444;2023-02-15T10:16:34;3.90;99.90
17146;DHT22;8688;54.444;18.444;2023-02-15T10:19:11;3.80;99.90
17146;DHT22;8688;54.444;18.444;2023-02-15T10:21:54;3.90;99.90
17146;DHT22;8688;54.444;18.444;2023-02-15T10:24:48;3.90;99.90
17146;DHT22;8688;54.444;18.444;2023-02-15T10:27:20;3.90;99.90
17146;DHT22;8688;54.444;18.444;2023-02-15T10:29:58;3.90;99.90
17146;DHT22;8688;54.444;18.444;2023-02-15T10:32:32;3.90;99.90
17146;DHT22;8688;54.444;18.444;2023-02-15T10:35:10;4.00;99.90
17146;DHT22;8688;54.444;18.444;2023-02-15T10:37:52;4.00;99.90
17146;DHT22;8688;54.444;18.444;2023-02-15T10:40:31;4.10;99.90
17146;DHT22;8688;54.444;18.444;2023-02-15T10:43:22;4.20;99.90
17146;DHT22;8688;54.444;18.444;2023-02-15T10:45:58;4.20;99.90
17146;DHT22;8688;54.444;18.444;2023-02-15T10:48:52;4.20;99.90
17146;DHT22;8688;54.444;18.444;2023-02-15T10:51:31;4.20;96.00
17146;DHT22;8688;54.444;18.444;2023-02-15T10:54:09;4.20;86.50
17146;DHT22;8688;54.444;18.444;2023-02-15T10:56:45;4.20;50.90
17146;DHT22;8688;54.444;18.444;2023-02-15T10:59:26;4.20;1.00
17146;DHT22;8688;54.444;18.444;2023-02-15T11:02:01;4.20;1.00
17146;DHT22;8688;54.444;18.444;2023-02-15T11:04:51;4.20;99.90
17146;DHT22;8688;54.444;18.444;2023-02-15T11:07:23;4.30;95.20
17146;DHT22;8688;54.444;18.444;2023-02-15T11:09:53;4.30;99.90
17146;DHT22;8688;54.444;18.444;2023-02-15T11:12:27;4.40;1.00
17146;DHT22;8688;54.444;18.444;2023-02-15T11:14:58;4.50;1.00
17146;DHT22;8688;54.444;18.444;2023-02-15T11:17:35;4.50;99.90
17146;DHT22;8688;54.444;18.444;2023-02-15T11:20:14;4.50;99.90
17146;DHT22;8688;54.444;18.444;2023-02-15T11:22:48;4.50;1.00
17146;DHT22;8688;54.444;18.444;2023-02-15T11:25:19;4.60;1.00
17146;DHT22;8688;54.444;18.444;2023-02-15T11:27:48;4.60;1.00
17146;DHT22;8688;54.444;18.444;2023-02-15T11:30:20;4.70;1.00
17146;DHT22;8688;54.444;18.444;2023-02-15T11:32:50;4.60;1.00
17146;DHT22;8688;54.444;18.444;2023-02-15T11:35:24;4.70;99.90
17146;DHT22;8688;54.444;18.444;2023-02-15T11:37:57;4.60;1.00
17146;DHT22;8688;54.444;18.444;2023-02-15T11:40:28;4.70;1.00
17146;DHT22;8688;54.444;18.444;2023-02-15T11:43:02;4.70;99.90
17146;DHT22;8688;54.444;18.444;2023-02-15T11:45:32;4.80;1.00
17146;DHT22;8688;54.444;18.444;2023-02-15T11:48:00;4.80;99.90
17146;DHT22;8688;54.444;18.444;2023-02-15T11:50:32;4.90;99.90
17146;DHT22;8688;54.444;18.444;2023-02-15T11:53:02;4.90;27.40
17146;DHT22;8688;54.444;18.444;2023-02-15T11:55:31;5.00;47.60
17146;DHT22;8688;54.444;18.444;2023-02-15T12:00:44;5.00;1.00
17146;DHT22;8688;54.444;18.444;2023-02-15T12:03:15;5.00;1.00
17146;DHT22;8688;54.444;18.444;2023-02-15T12:05:46;5.00;1.00
17146;DHT22;8688;54.444;18.444;2023-02-15T12:08:17;5.00;1.00
17146;DHT22;8688;54.444;18.444;2023-02-15T12:11:02;5.00;1.00
17146;DHT22;8688;54.444;18.444;2023-02-15T12:13:35;5.00;1.00
17146;DHT22;8688;54.444;18.444;2023-02-15T12:16:23;5.10;1.00
17146;DHT22;8688;54.444;18.444;2023-02-15T12:19:10;5.10;1.00
17146;DHT22;8688;54.444;18.444;2023-02-15T12:21:57;5.10;1.00
17146;DHT22;8688;54.444;18.444;2023-02-15T12:24:27;5.10;99.90
17146;DHT22;8688;54.444;18.444;2023-02-15T12:27:01;5.10;99.90
17146;DHT22;8688;54.444;18.444;2023-02-15T12:29:35;5.00;99.90
17146;DHT22;8688;54.444;18.444;2023-02-15T12:32:08;5.10;99.90
17146;DHT22;8688;54.444;18.444;2023-02-15T12:34:38;5.10;99.90
17146;DHT22;8688;54.444;18.444;2023-02-15T12:37:14;5.10;99.90
17146;DHT22;8688;54.444;18.444;2023-02-15T12:39:52;5.10;99.90
17146;DHT22;8688;54.444;18.444;2023-02-15T12:42:20;5.20;99.90
17146;DHT22;8688;54.444;18.444;2023-02-15T12:45:00;5.20;99.90
17146;DHT22;8688;54.444;18.444;2023-02-15T12:47:28;5.30;99.90
17146;DHT22;8688;54.444;18.444;2023-02-15T12:50:12;5.40;99.90
17146;DHT22;8688;54.444;18.444;2023-02-15T12:52:45;5.40;1.00
17146;DHT22;8688;54.444;18.444;2023-02-15T12:55:24;5.50;1.00
17146;DHT22;8688;54.444;18.444;2023-02-15T12:58:06;5.50;1.00
17146;DHT22;8688;54.444;18.444;2023-02-15T13:00:35;5.50;1.00
17146;DHT22;8688;54.444;18.444;2023-02-15T13:03:03;5.70;1.00
17146;DHT22;8688;54.444;18.444;2023-02-15T13:05:34;5.80;1.00
17146;DHT22;8688;54.444;18.444;2023-02-15T13:08:10;5.70;1.00
17146;DHT22;8688;54.444;18.444;2023-02-15T13:10:42;5.70;1.00
17146;DHT22;8688;54.444;18.444;2023-02-15T13:13:10;5.70;1.00
17146;DHT22;8688;54.444;18.444;2023-02-15T13:15:41;5.80;1.00
17146;DHT22;8688;54.444;18.444;2023-02-15T13:18:16;5.80;1.00
17146;DHT22;8688;54.444;18.444;2023-02-15T13:20:44;5.90;1.00
17146;DHT22;8688;54.444;18.444;2023-02-15T13:23:24;5.90;99.90
17146;DHT22;8688;54.444;18.444;2023-02-15T13:25:56;6.00;99.90
17146;DHT22;8688;54.444;18.444;2023-02-15T13:28:28;6.10;99.90
17146;DHT22;8688;54.444;18.444;2023-02-15T13:31:00;6.20;99.90
17146;DHT22;8688;54.444;18.444;2023-02-15T13:33:32;6.10;99.90
17146;DHT22;8688;54.444;18.444;2023-02-15T13:36:05;6.10;99.90
17146;DHT22;8688;54.444;18.444;2023-02-15T13:38:54;6.10;99.90
17146;DHT22;8688;54.444;18.444;2023-02-15T13:41:30;6.10;99.90
17146;DHT22;8688;54.444;18.444;2023-02-15T13:44:07;6.10;99.90
17146;DHT22;8688;54.444;18.444;2023-02-15T13:46:52;6.10;99.90
17146;DHT22;8688;54.444;18.444;2023-02-15T13:49:39;6.10;99.90
17146;DHT22;8688;54.444;18.444;2023-02-15T13:52:18;6.10;99.90
17146;DHT22;8688;54.444;18.444;2023-02-15T14:00:50;5.90;99.90
17146;DHT22;8688;54.444;18.444;2023-02-15T14:06:47;5.90;99.90
17146;DHT22;8688;54.444;18.444;2023-02-15T14:09:23;5.80;99.60
17146;DHT22;8688;54.444;18.444;2023-02-15T14:11:59;5.80;99.90
17146;DHT22;8688;54.444;18.444;2023-02-15T14:14:52;5.80;99.90
17146;DHT22;8688;54.444;18.444;2023-02-15T14:17:33;5.70;99.90
17146;DHT22;8688;54.444;18.444;2023-02-15T14:20:15;5.70;99.90
17146;DHT22;8688;54.444;18.444;2023-02-15T14:22:46;5.70;99.90
17146;DHT22;8688;54.444;18.444;2023-02-15T14:25:25;5.70;99.90
17146;DHT22;8688;54.444;18.444;2023-02-15T14:28:00;5.70;99.90
17146;DHT22;8688;54.444;18.444;2023-02-15T14:30:31;5.70;99.90
17146;DHT22;8688;54.444;18.444;2023-02-15T14:33:02;5.60;99.90
17146;DHT22;8688;54.444;18.444;2023-02-15T14:35:34;5.60;99.90
17146;DHT22;8688;54.444;18.444;2023-02-15T14:38:07;5.60;99.90
17146;DHT22;8688;54.444;18.444;2023-02-15T14:40:51;5.60;99.90
17146;DHT22;8688;54.444;18.444;2023-02-15T14:43:40;5.60;99.90
17146;DHT22;8688;54.444;18.444;2023-02-15T14:46:19;5.50;99.90
17146;DHT22;8688;54.444;18.444;2023-02-15T14:48:50;5.40;99.90
17146;DHT22;8688;54.444;18.444;2023-02-15T14:54:55;5.30;99.90
17146;DHT22;8688;54.444;18.444;2023-02-15T14:57:27;5.20;1.00
17146;DHT22;8688;54.444;18.444;2023-02-15T14:59:59;5.20;1.00
17146;DHT22;8688;54.444;18.444;2023-02-15T15:02:41;5.20;1.00
17146;DHT22;8688;54.444;18.444;2023-02-15T15:05:13;5.10;1.00
17146;DHT22;8688;54.444;18.444;2023-02-15T15:07:45;5.00;1.00
17146;DHT22;8688;54.444;18.444;2023-02-15T15:10:37;5.00;1.00
17146;DHT22;8688;54.444;18.444;2023-02-15T15:13:39;4.90;1.00
17146;DHT22;8688;54.444;18.444;2023-02-15T15:22:31;4.70;99.90
17146;DHT22;8688;54.444;18.444;2023-02-15T15:25:00;4.70;99.90
17146;DHT22;8688;54.444;18.444;2023-02-15T15:27:51;4.60;1.00
17146;DHT22;8688;54.444;18.444;2023-02-15T15:30:48;4.40;1.00
17146;DHT22;8688;54.444;18.444;2023-02-15T15:33:53;4.40;2.80
17146;DHT22;8688;54.444;18.444;2023-02-15T15:37:03;4.40;99.90
17146;DHT22;8688;54.444;18.444;2023-02-15T15:40:35;4.30;99.90
17146;DHT22;8688;54.444;18.444;2023-02-15T15:43:42;4.20;99.90
17146;DHT22;8688;54.444;18.444;2023-02-15T15:49:15;4.00;1.00
17146;DHT22;8688;54.444;18.444;2023-02-15T15:51:44;4.00;1.00
17146;DHT22;8688;54.444;18.444;2023-02-15T15:54:15;3.90;1.00
17146;DHT22;8688;54.444;18.444;2023-02-15T15:56:46;3.80;99.90
17146;DHT22;8688;54.444;18.444;2023-02-15T15:59:19;3.70;1.00
17146;DHT22;8688;54.444;18.444;2023-02-15T16:01:48;3.70;99.90
17146;DHT22;8688;54.444;18.444;2023-02-15T16:04:25;3.60;99.90
17146;DHT22;8688;54.444;18.444;2023-02-15T16:06:56;3.50;1.00
17146;DHT22;8688;54.444;18.444;2023-02-15T16:09:25;3.40;1.00
17146;DHT22;8688;54.444;18.444;2023-02-15T16:11:57;3.40;99.90
17146;DHT22;8688;54.444;18.444;2023-02-15T16:14:36;3.30;1.00
17146;DHT22;8688;54.444;18.444;2023-02-15T16:17:07;3.30;1.00
17146;DHT22;8688;54.444;18.444;2023-02-15T16:19:39;3.20;1.00
17146;DHT22;8688;54.444;18.444;2023-02-15T16:22:13;3.20;99.90
17146;DHT22;8688;54.444;18.444;2023-02-15T16:24:55;3.10;1.00
17146;DHT22;8688;54.444;18.444;2023-02-15T16:27:33;3.00;35.60
17146;DHT22;8688;54.444;18.444;2023-02-15T16:30:25;3.00;66.60
17146;DHT22;8688;54.444;18.444;2023-02-15T16:32:56;3.00;99.90
17146;DHT22;8688;54.444;18.444;2023-02-15T16:35:30;3.00;1.00
17146;DHT22;8688;54.444;18.444;2023-02-15T16:37:58;2.90;1.00
17146;DHT22;8688;54.444;18.444;2023-02-15T16:40:49;2.90;1.00
17146;DHT22;8688;54.444;18.444;2023-02-15T16:43:22;2.80;1.00
17146;DHT22;8688;54.444;18.444;2023-02-15T16:45:58;2.80;1.00
17146;DHT22;8688;54.444;18.444;2023-02-15T16:48:33;2.70;1.00
17146;DHT22;8688;54.444;18.444;2023-02-15T16:51:03;2.70;1.00
17146;DHT22;8688;54.444;18.444;2023-02-15T16:53:31;2.60;1.00
17146;DHT22;8688;54.444;18.444;2023-02-15T16:56:04;2.60;99.90
17146;DHT22;8688;54.444;18.444;2023-02-15T16:58:40;2.50;99.90
17146;DHT22;8688;54.444;18.444;2023-02-15T17:01:13;2.50;99.90
17146;DHT22;8688;54.444;18.444;2023-02-15T17:03:42;2.40;1.00
17146;DHT22;8688;54.444;18.444;2023-02-15T17:06:20;2.50;1.00
17146;DHT22;8688;54.444;18.444;2023-02-15T17:08:52;2.40;44.80
17146;DHT22;8688;54.444;18.444;2023-02-15T17:11:22;2.40;99.90
17146;DHT22;8688;54.444;18.444;2023-02-15T17:14:21;2.40;1.00
17146;DHT22;8688;54.444;18.444;2023-02-15T17:16:53;2.40;1.00
17146;DHT22;8688;54.444;18.444;2023-02-15T17:19:25;2.40;1.00